Spasskiy, Russia
Current Conditions -  °F | °C
As of 9:30 AM on Sunday 23 Nov 2014 (Local Time) from USCM Reporting Station
Broken Clouds Broken Clouds  
Wind Chill: 17°   Ceiling: 10000
Heat Index: 23°   Visibility: 5mi
Dew Point: 16°   Wind: 4mph
Humidity: 74%   Direction: NA
Pressure: 29.83"   Gusts: NA
Location:  53.7°N, 59.2°E
Report Text: USCM 230330Z VRB02MPS 8000 SCT026 BKN100 M05/M09 Q1010 TEMPO33017MPS 01090060 RMK QFE719
Loading
Personal Weather Stations






























Interactive Weather Map New forecast layout! Learn more

10-Day Weather Forecast

Advertisements
Track Severe Weather on mobile